Westminster, California
Current Conditions -  °F | °C
As of 10:58 AM on Thursday 23 Oct 2014 (Local Time) from KSLI Reporting Station
Haze Haze  
Wind Chill: 76°   Ceiling: Unl
Heat Index: 76°   Visibility: 6mi
Dew Point: 60°   Wind: 0mph
Humidity: 57%   Direction: NA
Pressure: 30"   Gusts: NA
Location:  33.76°N, 117.98°W
Report Text: KSLI 231758Z 00000KT 6SM HZ SCT250 24/15 A3000 RMK AO2A SLP162 T02430153 10244 20129 50010
Loading
Personal Weather Stations






























Interactive Weather Map
Tropical Storm Tracking
New forecast layout! Learn more

10-Day Weather Forecast

Advertisements
Track Severe Weather on mobile